sensor_id;sensor_type;location;lat;lon;timestamp;pressure;altitude;pressure_sealevel;temperature;humidity
76297;BME280;65104;52.994;6.552;2023-02-28T00:00:19;103193.41;;;3.23;90.82
76297;BME280;65104;52.994;6.552;2023-02-28T00:02:45;103191.16;;;3.26;90.44
76297;BME280;65104;52.994;6.552;2023-02-28T00:05:13;103186.69;;;3.24;90.88
76297;BME280;65104;52.994;6.552;2023-02-28T00:07:39;103189.00;;;3.21;90.34
76297;BME280;65104;52.994;6.552;2023-02-28T00:10:05;103177.94;;;3.20;90.67
76297;BME280;65104;52.994;6.552;2023-02-28T00:12:33;103177.19;;;3.21;90.60
76297;BME280;65104;52.994;6.552;2023-02-28T00:14:58;103180.34;;;3.19;90.28
76297;BME280;65104;52.994;6.552;2023-02-28T00:17:23;103178.31;;;3.25;90.51
76297;BME280;65104;52.994;6.552;2023-02-28T00:19:50;103180.09;;;3.26;90.40
76297;BME280;65104;52.994;6.552;2023-02-28T00:22:17;103172.34;;;3.24;90.45
76297;BME280;65104;52.994;6.552;2023-02-28T00:24:43;103165.75;;;3.26;90.73
76297;BME280;65104;52.994;6.552;2023-02-28T00:27:09;103161.06;;;3.21;90.92
76297;BME280;65104;52.994;6.552;2023-02-28T00:29:34;103164.38;;;3.20;91.49
76297;BME280;65104;52.994;6.552;2023-02-28T00:32:00;103163.72;;;3.12;91.31
76297;BME280;65104;52.994;6.552;2023-02-28T00:34:25;103178.94;;;3.12;91.56
76297;BME280;65104;52.994;6.552;2023-02-28T00:36:51;103173.97;;;3.14;91.17
76297;BME280;65104;52.994;6.552;2023-02-28T00:39:16;103160.28;;;3.12;91.68
76297;BME280;65104;52.994;6.552;2023-02-28T00:41:42;103170.53;;;3.13;91.45
76297;BME280;65104;52.994;6.552;2023-02-28T00:44:07;103166.25;;;3.12;91.90
76297;BME280;65104;52.994;6.552;2023-02-28T00:46:33;103172.31;;;3.14;92.31
76297;BME280;65104;52.994;6.552;2023-02-28T00:48:58;103169.16;;;3.17;91.66
76297;BME280;65104;52.994;6.552;2023-02-28T00:51:24;103158.41;;;3.19;91.80
76297;BME280;65104;52.994;6.552;2023-02-28T00:53:49;103154.06;;;3.18;92.00
76297;BME280;65104;52.994;6.552;2023-02-28T00:56:15;103154.72;;;3.26;92.03
76297;BME280;65104;52.994;6.552;2023-02-28T00:58:40;103154.84;;;3.27;92.11
76297;BME280;65104;52.994;6.552;2023-02-28T01:01:06;103153.81;;;3.25;92.34
76297;BME280;65104;52.994;6.552;2023-02-28T01:03:32;103152.56;;;3.20;92.20
76297;BME280;65104;52.994;6.552;2023-02-28T01:05:57;103142.88;;;3.16;92.86
76297;BME280;65104;52.994;6.552;2023-02-28T01:08:23;103138.56;;;3.15;92.92
76297;BME280;65104;52.994;6.552;2023-02-28T01:10:48;103145.16;;;3.13;92.28
76297;BME280;65104;52.994;6.552;2023-02-28T01:13:14;103141.34;;;3.08;92.43
76297;BME280;65104;52.994;6.552;2023-02-28T01:15:43;103153.91;;;3.07;92.54
76297;BME280;65104;52.994;6.552;2023-02-28T01:18:10;103156.19;;;3.04;93.22
76297;BME280;65104;52.994;6.552;2023-02-28T01:20:38;103166.47;;;3.05;92.93
76297;BME280;65104;52.994;6.552;2023-02-28T01:23:04;103162.03;;;3.03;93.27
76297;BME280;65104;52.994;6.552;2023-02-28T01:25:29;103167.25;;;3.04;92.88
76297;BME280;65104;52.994;6.552;2023-02-28T01:27:55;103166.47;;;3.05;93.22
76297;BME280;65104;52.994;6.552;2023-02-28T01:30:20;103169.13;;;3.07;93.64
76297;BME280;65104;52.994;6.552;2023-02-28T01:32:46;103167.50;;;3.07;93.78
76297;BME280;65104;52.994;6.552;2023-02-28T01:35:11;103169.28;;;3.08;93.55
76297;BME280;65104;52.994;6.552;2023-02-28T01:37:37;103173.72;;;3.11;93.36
76297;BME280;65104;52.994;6.552;2023-02-28T01:40:03;103170.03;;;3.07;93.38
76297;BME280;65104;52.994;6.552;2023-02-28T01:42:28;103169.00;;;3.05;93.80
76297;BME280;65104;52.994;6.552;2023-02-28T01:45:03;103164.94;;;3.07;93.15
76297;BME280;65104;52.994;6.552;2023-02-28T01:47:35;103158.63;;;3.12;93.52
76297;BME280;65104;52.994;6.552;2023-02-28T01:50:04;103147.81;;;3.15;93.65
76297;BME280;65104;52.994;6.552;2023-02-28T01:52:31;103145.16;;;3.13;93.43
76297;BME280;65104;52.994;6.552;2023-02-28T01:55:00;103149.47;;;3.14;93.40
76297;BME280;65104;52.994;6.552;2023-02-28T01:57:49;103146.69;;;3.11;93.52
76297;BME280;65104;52.994;6.552;2023-02-28T02:00:18;103146.16;;;3.05;93.59
76297;BME280;65104;52.994;6.552;2023-02-28T02:02:47;103144.91;;;3.10;93.68
76297;BME280;65104;52.994;6.552;2023-02-28T02:05:19;103140.19;;;3.05;93.94
76297;BME280;65104;52.994;6.552;2023-02-28T02:07:50;103141.97;;;3.06;94.46
76297;BME280;65104;52.994;6.552;2023-02-28T02:10:33;103148.59;;;3.04;94.77
76297;BME280;65104;52.994;6.552;2023-02-28T02:16:29;103131.72;;;3.04;95.10
76297;BME280;65104;52.994;6.552;2023-02-28T02:18:54;103133.69;;;2.98;95.31
76297;BME280;65104;52.994;6.552;2023-02-28T02:36:53;103126.84;;;2.97;95.79
76297;BME280;65104;52.994;6.552;2023-02-28T02:39:31;103123.66;;;2.89;95.72
76297;BME280;65104;52.994;6.552;2023-02-28T02:42:04;103125.06;;;2.86;96.43
76297;BME280;65104;52.994;6.552;2023-02-28T02:44:42;103120.47;;;2.82;96.42
76297;BME280;65104;52.994;6.552;2023-02-28T02:47:13;103123.03;;;2.92;96.37
76297;BME280;65104;52.994;6.552;2023-02-28T02:49:44;103118.69;;;2.81;96.28
76297;BME280;65104;52.994;6.552;2023-02-28T02:52:14;103126.28;;;2.81;96.36
76297;BME280;65104;52.994;6.552;2023-02-28T02:54:45;103126.53;;;2.74;96.95
76297;BME280;65104;52.994;6.552;2023-02-28T02:57:20;103121.47;;;2.74;96.89
76297;BME280;65104;52.994;6.552;2023-02-28T02:59:47;103128.16;;;2.73;97.02
76297;BME280;65104;52.994;6.552;2023-02-28T03:02:14;103129.53;;;2.70;97.80
76297;BME280;65104;52.994;6.552;2023-02-28T03:04:58;103132.06;;;2.70;97.60
76297;BME280;65104;52.994;6.552;2023-02-28T03:07:26;103139.69;;;2.70;97.57
76297;BME280;65104;52.994;6.552;2023-02-28T03:09:53;103137.66;;;2.66;97.89
76297;BME280;65104;52.994;6.552;2023-02-28T03:12:20;103140.94;;;2.64;97.82
76297;BME280;65104;52.994;6.552;2023-02-28T03:15:02;103140.94;;;2.64;98.02
76297;BME280;65104;52.994;6.552;2023-02-28T03:17:50;103138.13;;;2.61;98.11
76297;BME280;65104;52.994;6.552;2023-02-28T03:20:29;103136.72;;;2.55;97.34
76297;BME280;65104;52.994;6.552;2023-02-28T03:23:07;103134.03;;;2.53;97.32
76297;BME280;65104;52.994;6.552;2023-02-28T03:28:14;103130.22;;;2.48;97.30
76297;BME280;65104;52.994;6.552;2023-02-28T03:30:54;103132.84;;;2.40;97.41
76297;BME280;65104;52.994;6.552;2023-02-28T03:33:42;103130.94;;;2.37;97.84
76297;BME280;65104;52.994;6.552;2023-02-28T03:36:13;103126.69;;;2.28;97.37
76297;BME280;65104;52.994;6.552;2023-02-28T03:38:45;103137.84;;;2.30;97.51
76297;BME280;65104;52.994;6.552;2023-02-28T03:41:17;103136.16;;;2.20;97.66
76297;BME280;65104;52.994;6.552;2023-02-28T03:44:12;103141.59;;;2.14;97.50
76297;BME280;65104;52.994;6.552;2023-02-28T03:46:46;103148.00;;;2.11;97.67
76297;BME280;65104;52.994;6.552;2023-02-28T03:49:29;103148.28;;;2.14;97.29
76297;BME280;65104;52.994;6.552;2023-02-28T03:51:59;103141.16;;;2.10;97.59
76297;BME280;65104;52.994;6.552;2023-02-28T03:54:36;103139.38;;;2.09;97.65
76297;BME280;65104;52.994;6.552;2023-02-28T03:57:08;103139.97;;;2.06;98.07
76297;BME280;65104;52.994;6.552;2023-02-28T03:59:39;103147.56;;;2.06;97.88
76297;BME280;65104;52.994;6.552;2023-02-28T04:02:07;103138.75;;;2.11;97.73
76297;BME280;65104;52.994;6.552;2023-02-28T04:04:33;103137.34;;;2.05;97.62
76297;BME280;65104;52.994;6.552;2023-02-28T04:07:07;103138.22;;;2.05;97.91
76297;BME280;65104;52.994;6.552;2023-02-28T04:09:33;103144.44;;;2.09;98.09
76297;BME280;65104;52.994;6.552;2023-02-28T04:11:59;103142.50;;;2.06;98.44
76297;BME280;65104;52.994;6.552;2023-02-28T04:14:24;103140.34;;;2.01;98.44
76297;BME280;65104;52.994;6.552;2023-02-28T04:16:50;103145.53;;;2.02;98.63
76297;BME280;65104;52.994;6.552;2023-02-28T04:19:16;103140.47;;;2.02;98.75
76297;BME280;65104;52.994;6.552;2023-02-28T04:21:44;103140.47;;;2.02;98.67
76297;BME280;65104;52.994;6.552;2023-02-28T04:24:12;103138.22;;;2.05;98.49
76297;BME280;65104;52.994;6.552;2023-02-28T04:26:41;103143.41;;;2.07;98.33
76297;BME280;65104;52.994;6.552;2023-02-28T04:29:09;103142.25;;;2.03;98.09
76297;BME280;65104;52.994;6.552;2023-02-28T04:31:34;103143.00;;;2.02;98.46
76297;BME280;65104;52.994;6.552;2023-02-28T04:34:00;103147.66;;;1.98;97.87
76297;BME280;65104;52.994;6.552;2023-02-28T04:36:26;103139.50;;;1.92;98.33
76297;BME280;65104;52.994;6.552;2023-02-28T04:38:51;103145.47;;;1.92;98.09
76297;BME280;65104;52.994;6.552;2023-02-28T04:41:18;103146.91;;;1.99;98.68
76297;BME280;65104;52.994;6.552;2023-02-28T04:43:44;103148.88;;;1.93;98.61
76297;BME280;65104;52.994;6.552;2023-02-28T04:46:09;103152.59;;;1.96;98.34
76297;BME280;65104;52.994;6.552;2023-02-28T04:48:37;103156.63;;;1.94;98.26
76297;BME280;65104;52.994;6.552;2023-02-28T04:51:13;103151.72;;;1.96;98.63
76297;BME280;65104;52.994;6.552;2023-02-28T04:53:40;103157.25;;;1.92;98.54
76297;BME280;65104;52.994;6.552;2023-02-28T04:56:07;103156.50;;;1.93;99.00
76297;BME280;65104;52.994;6.552;2023-02-28T04:58:34;103149.34;;;1.88;98.86
76297;BME280;65104;52.994;6.552;2023-02-28T05:01:32;103154.41;;;1.88;98.99
76297;BME280;65104;52.994;6.552;2023-02-28T05:03:59;103157.44;;;1.84;99.38
76297;BME280;65104;52.994;6.552;2023-02-28T05:06:27;103160.59;;;1.82;98.86
76297;BME280;65104;52.994;6.552;2023-02-28T05:08:53;103157.00;;;1.80;98.42
76297;BME280;65104;52.994;6.552;2023-02-28T05:11:23;103167.63;;;1.76;98.22
76297;BME280;65104;52.994;6.552;2023-02-28T05:13:49;103158.25;;;1.75;98.24
76297;BME280;65104;52.994;6.552;2023-02-28T05:16:15;103159.88;;;1.74;98.32
76297;BME280;65104;52.994;6.552;2023-02-28T05:18:42;103161.88;;;1.68;98.54
76297;BME280;65104;52.994;6.552;2023-02-28T05:21:50;103155.91;;;1.68;98.09
76297;BME280;65104;52.994;6.552;2023-02-28T05:24:16;103167.41;;;1.64;98.20
76297;BME280;65104;52.994;6.552;2023-02-28T05:26:49;103162.19;;;1.63;97.88
76297;BME280;65104;52.994;6.552;2023-02-28T05:29:16;103155.91;;;1.68;98.07
76297;BME280;65104;52.994;6.552;2023-02-28T05:31:41;103159.25;;;1.58;97.70
76297;BME280;65104;52.994;6.552;2023-02-28T05:34:06;103154.63;;;1.54;97.35
76297;BME280;65104;52.994;6.552;2023-02-28T05:36:32;103148.97;;;1.57;98.26
76297;BME280;65104;52.994;6.552;2023-02-28T05:38:58;103157.22;;;1.45;97.53
76297;BME280;65104;52.994;6.552;2023-02-28T05:41:23;103170.34;;;1.41;97.90
76297;BME280;65104;52.994;6.552;2023-02-28T05:43:49;103162.03;;;1.42;98.68
76297;BME280;65104;52.994;6.552;2023-02-28T05:46:14;103167.81;;;1.41;98.06
76297;BME280;65104;52.994;6.552;2023-02-28T05:48:41;103168.69;;;1.50;98.40
76297;BME280;65104;52.994;6.552;2023-02-28T05:51:07;103172.25;;;1.44;97.72
76297;BME280;65104;52.994;6.552;2023-02-28T05:53:33;103170.22;;;1.40;98.32
76297;BME280;65104;52.994;6.552;2023-02-28T05:55:59;103175.28;;;1.40;98.27
76297;BME280;65104;52.994;6.552;2023-02-28T05:58:25;103181.53;;;1.35;98.23
76297;BME280;65104;52.994;6.552;2023-02-28T06:00:54;103170.97;;;1.39;98.53
76297;BME280;65104;52.994;6.552;2023-02-28T06:03:19;103172.25;;;1.44;98.27
76297;BME280;65104;52.994;6.552;2023-02-28T06:05:45;103174.38;;;1.39;97.44
76297;BME280;65104;52.994;6.552;2023-02-28T06:08:10;103169.31;;;1.39;97.77
76297;BME280;65104;52.994;6.552;2023-02-28T06:10:36;103165.84;;;1.47;97.59
76297;BME280;65104;52.994;6.552;2023-02-28T06:13:02;103172.75;;;1.40;97.46
76297;BME280;65104;52.994;6.552;2023-02-28T06:15:29;103172.91;;;1.41;98.17
76297;BME280;65104;52.994;6.552;2023-02-28T06:17:55;103175.72;;;1.36;98.41
76297;BME280;65104;52.994;6.552;2023-02-28T06:20:21;103177.38;;;1.35;98.10
76297;BME280;65104;52.994;6.552;2023-02-28T06:22:47;103179.09;;;1.45;97.80
76297;BME280;65104;52.994;6.552;2023-02-28T06:25:12;103182.38;;;1.44;97.93
76297;BME280;65104;52.994;6.552;2023-02-28T06:27:37;103186.88;;;1.38;98.42
76297;BME280;65104;52.994;6.552;2023-02-28T06:30:03;103189.72;;;1.41;98.53
76297;BME280;65104;52.994;6.552;2023-02-28T06:32:29;103176.44;;;1.43;98.00
76297;BME280;65104;52.994;6.552;2023-02-28T06:34:54;103180.91;;;1.46;98.18
76297;BME280;65104;52.994;6.552;2023-02-28T06:37:20;103190.75;;;1.43;98.43
76297;BME280;65104;52.994;6.552;2023-02-28T06:39:45;103190.47;;;1.40;98.33
76297;BME280;65104;52.994;6.552;2023-02-28T06:42:11;103185.69;;;1.43;97.86
76297;BME280;65104;52.994;6.552;2023-02-28T06:44:36;103180.00;;;1.45;98.01
76297;BME280;65104;52.994;6.552;2023-02-28T06:47:03;103181.19;;;1.49;98.39
76297;BME280;65104;52.994;6.552;2023-02-28T06:49:30;103187.94;;;1.40;98.25
76297;BME280;65104;52.994;6.552;2023-02-28T06:51:55;103195.03;;;1.44;98.72
76297;BME280;65104;52.994;6.552;2023-02-28T06:54:21;103194.19;;;1.35;98.47
76297;BME280;65104;52.994;6.552;2023-02-28T06:56:46;103206.53;;;1.40;98.50
76297;BME280;65104;52.994;6.552;2023-02-28T06:59:12;103198.22;;;1.41;98.21
76297;BME280;65104;52.994;6.552;2023-02-28T07:01:38;103200.09;;;1.44;97.99
76297;BME280;65104;52.994;6.552;2023-02-28T07:04:05;103203.03;;;1.57;97.74
76297;BME280;65104;52.994;6.552;2023-02-28T07:06:31;103196.97;;;1.46;97.90
76297;BME280;65104;52.994;6.552;2023-02-28T07:08:57;103198.16;;;1.50;97.51
76297;BME280;65104;52.994;6.552;2023-02-28T07:11:25;103199.28;;;1.62;98.66
76297;BME280;65104;52.994;6.552;2023-02-28T07:13:54;103214.00;;;1.66;97.78
76297;BME280;65104;52.994;6.552;2023-02-28T07:16:21;103223.94;;;1.46;97.75
76297;BME280;65104;52.994;6.552;2023-02-28T07:18:47;103218.56;;;1.52;97.46
76297;BME280;65104;52.994;6.552;2023-02-28T07:21:13;103230.91;;;1.57;98.26
76297;BME280;65104;52.994;6.552;2023-02-28T07:23:39;103227.47;;;1.57;97.85
76297;BME280;65104;52.994;6.552;2023-02-28T07:26:06;103230.28;;;1.60;96.99
76297;BME280;65104;52.994;6.552;2023-02-28T07:28:32;103234.72;;;1.62;96.96
76297;BME280;65104;52.994;6.552;2023-02-28T07:31:03;103235.06;;;1.57;97.34
76297;BME280;65104;52.994;6.552;2023-02-28T07:33:28;103231.81;;;1.49;98.00
76297;BME280;65104;52.994;6.552;2023-02-28T07:36:00;103233.59;;;1.50;97.58
76297;BME280;65104;52.994;6.552;2023-02-28T07:38:26;103237.00;;;1.59;97.79
76297;BME280;65104;52.994;6.552;2023-02-28T07:40:51;103242.06;;;1.59;97.70
76297;BME280;65104;52.994;6.552;2023-02-28T07:43:16;103242.66;;;1.57;97.53
76297;BME280;65104;52.994;6.552;2023-02-28T07:45:42;103238.91;;;1.62;98.01
76297;BME280;65104;52.994;6.552;2023-02-28T07:48:07;103244.75;;;1.61;97.85
76297;BME280;65104;52.994;6.552;2023-02-28T07:50:35;103240.69;;;1.63;97.93
76297;BME280;65104;52.994;6.552;2023-02-28T07:53:00;103244.06;;;1.72;97.39
76297;BME280;65104;52.994;6.552;2023-02-28T07:55:26;103248.69;;;1.76;97.06
76297;BME280;65104;52.994;6.552;2023-02-28T07:57:52;103232.00;;;1.78;98.22
76297;BME280;65104;52.994;6.552;2023-02-28T08:00:17;103234.38;;;1.76;97.17
76297;BME280;65104;52.994;6.552;2023-02-28T08:02:43;103233.91;;;1.80;97.37
76297;BME280;65104;52.994;6.552;2023-02-28T08:05:08;103234.34;;;1.85;97.32
76297;BME280;65104;52.994;6.552;2023-02-28T08:07:34;103232.41;;;1.82;98.01
76297;BME280;65104;52.994;6.552;2023-02-28T08:10:00;103241.44;;;1.89;96.75
76297;BME280;65104;52.994;6.552;2023-02-28T08:12:25;103240.38;;;1.96;97.17
76297;BME280;65104;52.994;6.552;2023-02-28T08:14:51;103234.84;;;2.00;96.41
76297;BME280;65104;52.994;6.552;2023-02-28T08:17:16;103245.56;;;2.06;96.89
76297;BME280;65104;52.994;6.552;2023-02-28T08:19:41;103253.97;;;2.15;97.41
76297;BME280;65104;52.994;6.552;2023-02-28T08:22:07;103250.22;;;2.20;96.73
76297;BME280;65104;52.994;6.552;2023-02-28T08:24:32;103260.97;;;2.17;95.39
76297;BME280;65104;52.994;6.552;2023-02-28T08:26:58;103258.84;;;2.22;95.86
76297;BME280;65104;52.994;6.552;2023-02-28T08:29:23;103253.22;;;2.35;96.19
76297;BME280;65104;52.994;6.552;2023-02-28T08:31:49;103258.38;;;2.45;95.67
76297;BME280;65104;52.994;6.552;2023-02-28T08:34:15;103255.97;;;2.46;95.18
76297;BME280;65104;52.994;6.552;2023-02-28T08:36:41;103253.53;;;2.38;93.63
76297;BME280;65104;52.994;6.552;2023-02-28T08:39:08;103252.91;;;2.40;94.16
76297;BME280;65104;52.994;6.552;2023-02-28T08:41:34;103261.59;;;2.52;94.45
76297;BME280;65104;52.994;6.552;2023-02-28T08:43:59;103260.31;;;2.47;92.90
76297;BME280;65104;52.994;6.552;2023-02-28T08:46:25;103250.69;;;2.53;92.69
76297;BME280;65104;52.994;6.552;2023-02-28T08:48:52;103253.16;;;2.62;92.99
76297;BME280;65104;52.994;6.552;2023-02-28T08:51:19;103252.19;;;2.70;93.59
76297;BME280;65104;52.994;6.552;2023-02-28T08:53:52;103256.81;;;2.74;92.85
76297;BME280;65104;52.994;6.552;2023-02-28T08:56:17;103261.72;;;2.91;92.29
76297;BME280;65104;52.994;6.552;2023-02-28T08:58:44;103243.13;;;3.01;93.55
76297;BME280;65104;52.994;6.552;2023-02-28T09:01:18;103250.06;;;2.93;91.40
76297;BME280;65104;52.994;6.552;2023-02-28T09:03:44;103247.97;;;3.08;90.10
76297;BME280;65104;52.994;6.552;2023-02-28T09:06:11;103241.72;;;3.05;90.46
76297;BME280;65104;52.994;6.552;2023-02-28T09:08:37;103239.88;;;3.12;89.96
76297;BME280;65104;52.994;6.552;2023-02-28T09:11:03;103237.28;;;3.02;91.88
76297;BME280;65104;52.994;6.552;2023-02-28T09:13:30;103235.34;;;2.99;90.74
76297;BME280;65104;52.994;6.552;2023-02-28T09:15:59;103240.06;;;3.05;91.67
76297;BME280;65104;52.994;6.552;2023-02-28T09:18:25;103243.41;;;3.14;91.37
76297;BME280;65104;52.994;6.552;2023-02-28T09:20:51;103252.28;;;3.38;89.95
76297;BME280;65104;52.994;6.552;2023-02-28T09:23:17;103249.63;;;3.47;89.07
76297;BME280;65104;52.994;6.552;2023-02-28T09:25:47;103244.75;;;3.29;85.41
76297;BME280;65104;52.994;6.552;2023-02-28T09:28:13;103250.81;;;3.31;87.97
76297;BME280;65104;52.994;6.552;2023-02-28T09:30:41;103246.78;;;3.33;84.14
76297;BME280;65104;52.994;6.552;2023-02-28T09:33:07;103250.81;;;3.31;84.74
76297;BME280;65104;52.994;6.552;2023-02-28T09:35:32;103251.81;;;3.23;84.61
76297;BME280;65104;52.994;6.552;2023-02-28T09:37:57;103248.03;;;3.28;85.07
76297;BME280;65104;52.994;6.552;2023-02-28T09:40:24;103252.13;;;3.36;84.89
76297;BME280;65104;52.994;6.552;2023-02-28T09:42:54;103245.53;;;3.38;85.58
76297;BME280;65104;52.994;6.552;2023-02-28T09:45:28;103243.25;;;3.42;85.26
76297;BME280;65104;52.994;6.552;2023-02-28T09:48:20;103238.94;;;3.51;85.98
76297;BME280;65104;52.994;6.552;2023-02-28T09:50:50;103244.94;;;3.61;85.86
76297;BME280;65104;52.994;6.552;2023-02-28T09:53:21;103247.22;;;3.48;85.37
76297;BME280;65104;52.994;6.552;2023-02-28T09:55:55;103240.72;;;3.42;86.29
76297;BME280;65104;52.994;6.552;2023-02-28T09:58:35;103245.22;;;3.64;86.72
76297;BME280;65104;52.994;6.552;2023-02-28T10:01:09;103252.97;;;3.76;83.03
76297;BME280;65104;52.994;6.552;2023-02-28T10:03:39;103250.22;;;3.83;83.17
76297;BME280;65104;52.994;6.552;2023-02-28T10:06:07;103250.19;;;3.73;81.91
76297;BME280;65104;52.994;6.552;2023-02-28T10:08:44;103250.16;;;3.63;83.68
76297;BME280;65104;52.994;6.552;2023-02-28T10:11:16;103248.69;;;3.75;83.67
76297;BME280;65104;52.994;6.552;2023-02-28T10:14:05;103246.91;;;4.14;83.97
76297;BME280;65104;52.994;6.552;2023-02-28T10:16:38;103257.72;;;4.32;81.91
76297;BME280;65104;52.994;6.552;2023-02-28T10:19:12;103246.16;;;4.36;74.21
76297;BME280;65104;52.994;6.552;2023-02-28T10:21:43;103257.47;;;4.19;76.45
76297;BME280;65104;52.994;6.552;2023-02-28T10:24:27;103257.84;;;4.44;73.51
76297;BME280;65104;52.994;6.552;2023-02-28T10:26:59;103258.31;;;4.50;70.77
76297;BME280;65104;52.994;6.552;2023-02-28T10:29:26;103260.44;;;4.76;72.63
76297;BME280;65104;52.994;6.552;2023-02-28T10:31:51;103264.13;;;4.79;72.17
76297;BME280;65104;52.994;6.552;2023-02-28T10:34:17;103256.69;;;4.93;74.66
76297;BME280;65104;52.994;6.552;2023-02-28T10:36:42;103257.47;;;4.92;72.63
76297;BME280;65104;52.994;6.552;2023-02-28T10:39:45;103261.94;;;5.26;72.98
76297;BME280;65104;52.994;6.552;2023-02-28T10:42:26;103251.72;;;5.48;67.94
76297;BME280;65104;52.994;6.552;2023-02-28T10:47:33;103245.38;;;5.64;65.74
76297;BME280;65104;52.994;6.552;2023-02-28T10:49:59;103251.81;;;5.59;63.79
76297;BME280;65104;52.994;6.552;2023-02-28T10:52:39;103241.91;;;5.52;66.32
76297;BME280;65104;52.994;6.552;2023-02-28T10:55:34;103240.47;;;4.80;63.31
76297;BME280;65104;52.994;6.552;2023-02-28T10:58:00;103241.56;;;4.84;64.47
76297;BME280;65104;52.994;6.552;2023-02-28T11:00:32;103243.13;;;5.14;67.06
76297;BME280;65104;52.994;6.552;2023-02-28T11:02:58;103233.84;;;5.58;69.09
76297;BME280;65104;52.994;6.552;2023-02-28T11:05:32;103237.50;;;5.83;66.62
76297;BME280;65104;52.994;6.552;2023-02-28T11:08:06;103229.81;;;5.93;65.27
76297;BME280;65104;52.994;6.552;2023-02-28T11:10:36;103230.59;;;5.71;67.14
76297;BME280;65104;52.994;6.552;2023-02-28T11:13:02;103233.00;;;5.47;66.60
76297;BME280;65104;52.994;6.552;2023-02-28T11:15:35;103233.38;;;5.52;69.46
76297;BME280;65104;52.994;6.552;2023-02-28T11:20:33;103227.13;;;6.25;67.65
76297;BME280;65104;52.994;6.552;2023-02-28T11:23:01;103225.50;;;6.61;63.38
76297;BME280;65104;52.994;6.552;2023-02-28T11:25:32;103227.13;;;7.43;66.06
76297;BME280;65104;52.994;6.552;2023-02-28T11:28:00;103216.91;;;7.93;59.49
76297;BME280;65104;52.994;6.552;2023-02-28T11:30:40;103210.06;;;8.56;60.65
76297;BME280;65104;52.994;6.552;2023-02-28T11:35:46;103205.22;;;9.84;55.22
76297;BME280;65104;52.994;6.552;2023-02-28T11:38:13;103197.16;;;9.22;52.76
76297;BME280;65104;52.994;6.552;2023-02-28T11:43:19;103202.56;;;9.97;55.03
76297;BME280;65104;52.994;6.552;2023-02-28T11:49:32;103193.84;;;10.38;53.49
76297;BME280;65104;52.994;6.552;2023-02-28T12:12:23;103188.13;;;11.85;47.31
76297;BME280;65104;52.994;6.552;2023-02-28T12:19:59;103175.56;;;12.60;44.03
76297;BME280;65104;52.994;6.552;2023-02-28T12:22:28;103176.66;;;13.02;42.47
76297;BME280;65104;52.994;6.552;2023-02-28T12:27:34;103171.41;;;12.64;42.08
76297;BME280;65104;52.994;6.552;2023-02-28T12:30:13;103174.34;;;12.36;46.24
76297;BME280;65104;52.994;6.552;2023-02-28T12:32:44;103163.69;;;13.01;43.99
76297;BME280;65104;52.994;6.552;2023-02-28T12:35:14;103157.53;;;12.79;39.22
76297;BME280;65104;52.994;6.552;2023-02-28T12:37:42;103168.72;;;12.43;41.77
76297;BME280;65104;52.994;6.552;2023-02-28T12:40:22;103156.81;;;12.82;42.67
76297;BME280;65104;52.994;6.552;2023-02-28T12:43:01;103163.78;;;12.30;42.22
76297;BME280;65104;52.994;6.552;2023-02-28T12:45:42;103149.03;;;12.63;42.60
76297;BME280;65104;52.994;6.552;2023-02-28T12:48:13;103152.28;;;12.41;43.04
76297;BME280;65104;52.994;6.552;2023-02-28T12:50:40;103153.91;;;12.21;45.03
76297;BME280;65104;52.994;6.552;2023-02-28T12:53:15;103151.50;;;10.93;45.67
76297;BME280;65104;52.994;6.552;2023-02-28T13:08:51;103131.53;;;11.52;43.55
76297;BME280;65104;52.994;6.552;2023-02-28T13:11:28;103119.59;;;11.87;42.86
76297;BME280;65104;52.994;6.552;2023-02-28T13:14:04;103120.25;;;12.54;41.24
76297;BME280;65104;52.994;6.552;2023-02-28T13:24:56;103122.28;;;9.85;45.41
76297;BME280;65104;52.994;6.552;2023-02-28T13:29:51;103118.50;;;9.21;47.34
76297;BME280;65104;52.994;6.552;2023-02-28T13:32:29;103123.53;;;7.86;51.55
76297;BME280;65104;52.994;6.552;2023-02-28T13:39:47;103119.41;;;9.36;46.96
76297;BME280;65104;52.994;6.552;2023-02-28T13:42:34;103124.19;;;8.35;48.96
76297;BME280;65104;52.994;6.552;2023-02-28T13:47:36;103128.28;;;7.31;52.08
76297;BME280;65104;52.994;6.552;2023-02-28T13:50:37;103118.25;;;8.23;49.35
76297;BME280;65104;52.994;6.552;2023-02-28T13:59:06;103105.56;;;10.06;45.97
76297;BME280;65104;52.994;6.552;2023-02-28T14:07:07;103100.16;;;9.87;47.90
76297;BME280;65104;52.994;6.552;2023-02-28T14:09:40;103111.13;;;9.55;47.56
76297;BME280;65104;52.994;6.552;2023-02-28T14:18:14;103099.38;;;9.73;47.04
76297;BME280;65104;52.994;6.552;2023-02-28T14:20:40;103108.25;;;9.21;47.97
76297;BME280;65104;52.994;6.552;2023-02-28T14:23:26;103114.31;;;8.28;48.99
76297;BME280;65104;52.994;6.552;2023-02-28T14:26:07;103106.84;;;8.44;49.79
76297;BME280;65104;52.994;6.552;2023-02-28T14:28:43;103110.75;;;8.65;48.99
76297;BME280;65104;52.994;6.552;2023-02-28T14:31:17;103111.59;;;8.79;49.22
76297;BME280;65104;52.994;6.552;2023-02-28T14:33:59;103107.81;;;9.28;46.96
76297;BME280;65104;52.994;6.552;2023-02-28T14:36:36;103113.50;;;9.10;47.36
76297;BME280;65104;52.994;6.552;2023-02-28T14:39:07;103122.88;;;8.42;48.80
76297;BME280;65104;52.994;6.552;2023-02-28T14:41:38;103113.50;;;8.16;48.38
76297;BME280;65104;52.994;6.552;2023-02-28T14:44:20;103115.09;;;8.14;49.55
76297;BME280;65104;52.994;6.552;2023-02-28T14:47:00;103112.72;;;8.04;49.87
76297;BME280;65104;52.994;6.552;2023-02-28T14:49:42;103115.09;;;8.14;50.53
76297;BME280;65104;52.994;6.552;2023-02-28T14:52:19;103110.06;;;8.02;50.33
76297;BME280;65104;52.994;6.552;2023-02-28T14:54:45;103114.78;;;7.96;51.41
76297;BME280;65104;52.994;6.552;2023-02-28T14:57:32;103104.63;;;7.84;52.08
76297;BME280;65104;52.994;6.552;2023-02-28T15:02:25;103105.38;;;7.57;52.08
76297;BME280;65104;52.994;6.552;2023-02-28T15:05:14;103110.59;;;7.59;53.15
76297;BME280;65104;52.994;6.552;2023-02-28T15:07:42;103106.91;;;7.42;51.64